Wormit, United Kingdom

11:08 PM GMT on December 04, 2016 (GMT +0000)
West End | | Change Station

Elev 187 ft 56.46 °N, 3.02 °W | Updated 52 seconds ago

Clear
Clear
33.2 °F
Feels Like 33 °F
N
0.0
Wind Variable Wind from NNW
Gusts 0.0 mph

Today
High -- | Low -- °F
--% Chance of Precip.
Yesterday
High -- | Low -- °F
Precip. -- in
Pressure 30.33 in
Visibility -9999.0 miles
Clouds
Windchill 33 °F
Dew Point 29 °F
Humidity 85%
Rainfall 0.00 in
Snow Depth Not available.
8:26 AM 3:37 PM
Waxing Crescent, 26% visible
METAR EGQL 042250Z 35002KT CAVOK M02/M02 Q1027 BLU
Pressure 30.33 in
Visibility -9999.0 miles
Clouds
Windchill 33 °F
Dew Point 29 °F
Humidity 85%
Rainfall 0.00 in
Snow Depth Not available.
8:26 AM 3:37 PM
Waxing Crescent, 26% visible
METAR EGQL 042250Z 35002KT CAVOK M02/M02 Q1027 BLU

10-Day Weather Forecast

×

Almanac

Astronomy

Dec. 04, 2016 Rise Set
Actual Time
Civil Twilight
Nautical Twilight
Astronomical Twilight
Moon
Length of Visible Light
Length of Day
Tomorrow will be .
, % of the Moon is Illuminated

Today's Extremes

Country Highs Country Lows

Community

WunderPhotos

Upload Photos

1,955,695 photos uploaded!

WunderBlog® & News

Nearby

Air Quality

  Air Quality AQ Index Pollutant
Not available.

Snow Depth

Station Depth Elevation

Earthquake Activity

City Distance Mag. Time & Date
Minimum magnitude displayed is 2.5.

Coastal Water Temperatures

Place Temperature

Stations

Nearby Weather Stations

Station Location Temp. Windchill Dew Point Humidity Wind Precip. Elev Updated Type